Killeen, TX

3:49 PM CDT on July 04, 2015 (GMT -0500)
Hood Army Air Field | | Change Station
CLOSE
Current Station
Airport
Location: Killeen/Ft Hood,
Elevation: 922 ft
Nearby Weather Stations

Elev 922 ft 31.14 °N, 97.71 °W | Updated 25 minutes ago

Partly Cloudy
Partly Cloudy
91 °F
Feels Like 98 °F
N
15
Wind Variable Wind from South

Today
High -- | Low -- °F
--% Chance of Precip.
Yesterday
High -- | Low -- °F
Precip. -- in
6:31 AM 8:38 PM
Waning Gibbous, 90% visible
Pressure 29.97 in
Visibility 10.0 miles
Clouds Few 30000 ft
Heat Index 98 °F
Dew Point 72 °F
Humidity 52%
Rainfall 0.00 in
Snow Depth Not available.
UV 10 out of 12
Pollen 4.20 out of 12
Air Quality Not available.
Flu Activity Not available.
SPECI KHLR 042024Z AUTO 19013KT 10SM FEW300 33/22 A2997 RMK AO2 WSHFT 18

More Conditions Fewer Conditions

Pressure 29.97 in
Visibility 10.0 miles
Clouds Few 30000 ft
Heat Index 98 °F
Dew Point 72 °F
Humidity 52%
Rainfall 0.00 in
Snow Depth Not available.
UV 10 out of 12
Pollen 4.20 out of 12
Air Quality Not available.
Flu Activity Not available.
SPECI KHLR 042024Z AUTO 19013KT 10SM FEW300 33/22 A2997 RMK AO2 WSHFT 18

More Conditions Fewer Conditions

Nowcast | as of 3:02 PM CDT on July 4, 2015

Isolated showers and thunderstorms will continue to develop this afternoon mainly east of a line from Bowie to Gatesville. This activity is fairly short lived...usually lasting less than 30 minutes and may produce up to one quarter of an inch of rainfall. Storms will also produce frequent lightning and may produce gusty winds. Otherwise...warm and humid conditions can be expected with temperatures peaking in the lower 90s at most locations. Afternoon heat indices will make it feel like it is in the mid 90s to near 100 degrees. Persons engaged in outside activities should drink plenty of water and seek cooler conditions periodically to avoid heat related physically problems.

×

10-Day Weather Forecast

×

Almanac

Astronomy

Jul. 04, 2015 Rise Set
Actual Time
Civil Twilight
Nautical Twilight
Astronomical Twilight
Moon
Length of Visible Light
Length of Day
Tomorrow will be .
, % of the Moon is Illuminated

Today's Extremes

State Highs State Lows

Community

WunderPhotos

Upload Photos

1,835,091 photos uploaded!

WunderBlogs® & News

Nearby

Air Quality

  Air Quality AQ Index Pollutant
Not available.

Snow Depth

Station Depth Elevation

Earthquake Activity

City Distance Mag. Time & Date
Minimum magnitude displayed is 2.5.

Coastal Water Temperatures

Place Temperature

Stations

Nearby Weather Stations

Station Location Temp. Windchill Dew Point Humidity Wind Precip. Elev Updated Type